Time;durP1;ratioP1;P1;durP2;ratioP2;P2;SDS_P1;SDS_P2;PMS_P1;PMS_P2;Temp;Humidity;BMP_temperature;BMP_pressure;BME280_temperature;BME280_humidity;BME280_pressure;Samples;Min_cycle;Max_cycle;Signal;HPM_P1;HPM_P2
2021/05/12 00:00:13;;;;;;;4.35;1.70;;;;;;;;;;5110128;28;20028;-74
2021/05/12 00:03:27;;;;;;;6.18;1.90;;;;;;;;;;5069883;28;20433;-73
2021/05/12 00:05:54;;;;;;;8.93;2.38;;;;;;;;;;5069532;28;20024;-74
2021/05/12 00:08:42;;;;;;;2.85;1.63;;;;;;;;;;5110657;27;20426;-74
2021/05/12 00:14:01;;;;;;;7.10;1.80;;;;;;;;;;5110288;27;20404;-73
2021/05/12 00:18:50;;;;;;;3.20;1.48;;;;;;;;;;5110608;27;20388;-73
2021/05/12 00:21:27;;;;;;;2.63;1.33;;;;;;;;;;5108815;28;20028;-74
2021/05/12 00:24:00;;;;;;;4.40;1.63;;;;;;;;;;5110475;28;20468;-73
2021/05/12 00:26:30;;;;;;;3.53;1.40;;;;;;;;;;5108804;28;20031;-73
2021/05/12 00:28:56;;;;;;;3.85;1.23;;;;;;;;;;5110360;28;20077;-74
2021/05/12 00:31:22;;;;;;;5.22;2.10;;;;;;;;;;5110536;28;20264;-74
2021/05/12 00:33:48;;;;;;;3.08;1.30;;;;;;;;;;5109987;28;20023;-74
2021/05/12 00:36:14;;;;;;;3.28;1.60;;;;;;;;;;5108958;28;20110;-74
2021/05/12 00:38:40;;;;;;;3.53;1.42;;;;;;;;;;5108784;28;20043;-74
2021/05/12 00:41:40;;;;;;;2.35;1.20;;;;;;;;;;5110164;27;20112;-74
2021/05/12 00:44:06;;;;;;;;;;;;;;;;;;5111038;28;20484;-74
2021/05/12 00:46:32;;;;;;;4.00;1.45;;;;;;;;;;5110409;28;19951;-74
2021/05/12 00:48:59;;;;;;;2.30;1.40;;;;;;;;;;5110033;28;20024;-73
2021/05/12 00:51:25;;;;;;;3.42;1.52;;;;;;;;;;5110528;28;20030;-74
2021/05/12 00:53:51;;;;;;;4.63;1.95;;;;;;;;;;5109121;28;20054;-74
2021/05/12 00:56:18;;;;;;;4.63;1.50;;;;;;;;;;5109851;28;20062;-74
2021/05/12 00:58:45;;;;;;;4.95;2.17;;;;;;;;;;5110460;28;20418;-74
2021/05/12 01:01:51;;;;;;;13.68;2.80;;;;;;;;;;5110132;27;20392;-73
2021/05/12 01:04:17;;;;;;;3.72;1.98;;;;;;;;;;5110543;28;20042;-74
2021/05/12 01:06:43;;;;;;;5.70;2.10;;;;;;;;;;5110453;28;20058;-74
2021/05/12 01:09:09;;;;;;;4.97;2.22;;;;;;;;;;5110060;28;20065;-74
2021/05/12 01:13:12;;;;;;;3.67;1.60;;;;;;;;;;5110628;27;20965;-74
2021/05/12 01:15:39;;;;;;;7.15;2.25;;;;;;;;;;5110168;28;20432;-73
2021/05/12 01:19:39;;;;;;;4.65;1.90;;;;;;;;;;5110477;27;20446;-73
2021/05/12 01:22:05;;;;;;;4.90;2.22;;;;;;;;;;5111005;28;20445;-73
2021/05/12 01:24:32;;;;;;;4.70;1.83;;;;;;;;;;5108760;28;20024;-73
2021/05/12 01:26:58;;;;;;;2.17;1.45;;;;;;;;;;5110410;28;20024;-73
2021/05/12 01:29:24;;;;;;;3.35;1.77;;;;;;;;;;5108661;28;20023;-74
2021/05/12 01:31:52;;;;;;;2.72;1.63;;;;;;;;;;5110571;28;20103;-74
2021/05/12 01:35:09;;;;;;;3.35;1.30;;;;;;;;;;5131087;27;20518;-74
2021/05/12 01:41:08;;;;;;;5.80;2.22;;;;;;;;;;5110514;27;20433;-74
2021/05/12 01:44:13;;;;;;;7.32;2.80;;;;;;;;;;5110093;27;20377;-74
2021/05/12 01:47:58;;;;;;;6.95;2.55;;;;;;;;;;5110501;27;20377;-73
2021/05/12 01:50:24;;;;;;;5.07;2.38;;;;;;;;;;5110535;28;20024;-74
2021/05/12 01:54:31;;;;;;;6.28;2.47;;;;;;;;;;5110732;27;20790;-74
2021/05/12 01:56:58;;;;;;;4.53;2.83;;;;;;;;;;5110449;28;20028;-74
2021/05/12 01:59:24;;;;;;;6.35;3.05;;;;;;;;;;5110084;28;20032;-74
2021/05/12 02:01:50;;;;;;;5.25;2.35;;;;;;;;;;5110428;28;20357;-74
2021/05/12 02:04:16;;;;;;;12.63;3.63;;;;;;;;;;5110462;28;20059;-74
2021/05/12 02:06:42;;;;;;;9.60;3.08;;;;;;;;;;5109908;28;20031;-74
2021/05/12 02:09:09;;;;;;;7.65;2.97;;;;;;;;;;5108985;28;20111;-74
2021/05/12 02:11:38;;;;;;;8.55;3.22;;;;;;;;;;5109997;28;20027;-74
2021/05/12 02:14:05;;;;;;;9.18;2.75;;;;;;;;;;5110234;28;20426;-73
2021/05/12 02:17:09;;;;;;;7.45;2.28;;;;;;;;;;5110588;27;20821;-73
2021/05/12 02:19:36;;;;;;;4.45;2.67;;;;;;;;;;5110070;28;20058;-74
2021/05/12 02:22:02;;;;;;;5.68;2.47;;;;;;;;;;5110521;28;20072;-73
2021/05/12 02:24:28;;;;;;;7.85;2.30;;;;;;;;;;5110369;28;20023;-73
2021/05/12 02:26:54;;;;;;;4.97;2.17;;;;;;;;;;5108660;28;20547;-74
2021/05/12 02:29:20;;;;;;;4.70;2.33;;;;;;;;;;5110412;28;20115;-73
2021/05/12 02:31:46;;;;;;;4.15;2.10;;;;;;;;;;5110523;28;20081;-74
2021/05/12 02:34:13;;;;;;;5.13;2.30;;;;;;;;;;5109948;28;20031;-74
2021/05/12 02:36:39;;;;;;;5.00;2.03;;;;;;;;;;5110108;28;20403;-74
2021/05/12 02:39:05;;;;;;;5.43;2.22;;;;;;;;;;5110367;28;20016;-74
2021/05/12 02:43:08;;;;;;;4.70;2.20;;;;;;;;;;5110570;27;20377;-74
2021/05/12 02:45:34;;;;;;;6.82;2.65;;;;;;;;;;5109170;28;20045;-74
2021/05/12 02:48:01;;;;;;;5.10;2.55;;;;;;;;;;5108742;28;20110;-73
2021/05/12 02:50:31;;;;;;;4.40;1.90;;;;;;;;;;5109275;28;20023;-74
2021/05/12 02:52:57;;;;;;;4.70;2.60;;;;;;;;;;5109150;28;20051;-74
2021/05/12 02:56:28;;;;;;;5.63;2.47;;;;;;;;;;5110526;27;20384;-74
2021/05/12 02:58:54;;;;;;;6.03;2.97;;;;;;;;;;5110564;28;20023;-76
2021/05/12 03:01:20;;;;;;;6.05;2.47;;;;;;;;;;5108827;28;20073;-75
2021/05/12 03:03:47;;;;;;;7.22;2.97;;;;;;;;;;5110463;28;20028;-74
2021/05/12 03:06:13;;;;;;;9.55;4.05;;;;;;;;;;5110351;28;20073;-75
2021/05/12 03:11:01;;;;;;;6.30;3.20;;;;;;;;;;5110729;27;20385;-75
2021/05/12 03:13:27;;;;;;;10.48;3.13;;;;;;;;;;5110660;28;20024;-74
2021/05/12 03:16:14;;;;;;;4.20;2.60;;;;;;;;;;5110200;27;20357;-74
2021/05/12 03:18:41;;;;;;;5.15;2.17;;;;;;;;;;5110866;28;20020;-74
2021/05/12 03:21:07;;;;;;;4.25;2.70;;;;;;;;;;5109195;28;20024;-74
2021/05/12 03:23:33;;;;;;;8.15;2.95;;;;;;;;;;5110079;28;20035;-75
2021/05/12 03:26:39;;;;;;;4.75;2.72;;;;;;;;;;5090141;27;20788;-74
2021/05/12 03:30:39;;;;;;;5.45;2.55;;;;;;;;;;5110370;27;20381;-74
2021/05/12 03:33:07;;;;;;;5.35;3.10;;;;;;;;;;5110587;28;20333;-74
2021/05/12 03:35:34;;;;;;;11.95;3.67;;;;;;;;;;5110418;28;20467;-75
2021/05/12 03:39:31;;;;;;;11.48;3.63;;;;;;;;;;5110469;27;20809;-75
2021/05/12 03:41:57;;;;;;;8.20;3.28;;;;;;;;;;5110462;28;20111;-74
2021/05/12 03:46:23;;;;;;;4.63;2.47;;;;;;;;;;5110525;27;20389;-74
2021/05/12 03:48:50;;;;;;;2.80;1.70;;;;;;;;;;5110659;28;20039;-74
2021/05/12 03:51:16;;;;;;;3.80;1.80;;;;;;;;;;5110219;28;20050;-74
2021/05/12 03:54:41;;;;;;;5.97;2.28;;;;;;;;;;5110652;27;20377;-74
2021/05/12 03:57:07;;;;;;;7.25;2.63;;;;;;;;;;5108837;28;20020;-75
2021/05/12 03:59:34;;;;;;;7.28;3.58;;;;;;;;;;5109187;28;20020;-74
2021/05/12 04:02:00;;;;;;;5.82;2.38;;;;;;;;;;5110468;28;20099;-74
2021/05/12 04:04:26;;;;;;;4.75;2.90;;;;;;;;;;5109886;28;20026;-74
2021/05/12 04:06:52;;;;;;;8.07;3.00;;;;;;;;;;5110239;28;20027;-74
2021/05/12 04:09:18;;;;;;;6.30;3.45;;;;;;;;;;5110169;28;20048;-75
2021/05/12 04:11:47;;;;;;;5.32;2.65;;;;;;;;;;5110037;28;20020;-74
2021/05/12 04:14:13;;;;;;;6.22;2.75;;;;;;;;;;5109054;28;20559;-74
2021/05/12 04:18:20;;;;;;;3.72;2.22;;;;;;;;;;5029774;28;20390;-76
2021/05/12 04:20:56;;;;;;;7.13;2.45;;;;;;;;;;5110361;27;20166;-74
2021/05/12 04:24:22;;;;;;;5.38;2.95;;;;;;;;;;5108916;27;20452;-74
2021/05/12 04:28:47;;;;;;;6.30;3.22;;;;;;;;;;5090208;27;20794;-75
2021/05/12 04:31:13;;;;;;;7.05;3.28;;;;;;;;;;5090231;28;20151;-75
2021/05/12 04:33:40;;;;;;;5.55;2.88;;;;;;;;;;5089917;28;20016;-74
2021/05/12 04:38:13;;;;;;;6.55;3.78;;;;;;;;;;5108689;27;20381;-74
2021/05/12 04:40:40;;;;;;;10.82;4.90;;;;;;;;;;5108248;28;20027;-74
2021/05/12 04:43:43;;;;;;;9.02;3.95;;;;;;;;;;5048080;28;20418;-74
2021/05/12 04:46:09;;;;;;;11.90;5.30;;;;;;;;;;5046969;28;20039;-74
2021/05/12 04:50:33;;;;;;;11.77;4.57;;;;;;;;;;5109695;27;20892;-75
2021/05/12 04:55:50;;;;;;;13.35;5.03;;;;;;;;;;5110739;27;20381;-74
2021/05/12 04:58:16;;;;;;;12.93;4.38;;;;;;;;;;5109436;28;20468;-74
2021/05/12 05:00:43;;;;;;;12.60;4.70;;;;;;;;;;5119492;28;20024;-74
2021/05/12 05:04:28;;;;;;;7.78;3.97;;;;;;;;;;5111016;27;20168;-73
2021/05/12 05:07:50;;;;;;;10.68;4.80;;;;;;;;;;5069477;28;20847;-73
2021/05/12 05:10:17;;;;;;;7.18;3.25;;;;;;;;;;5070015;28;20409;-73
2021/05/12 05:12:43;;;;;;;8.82;3.95;;;;;;;;;;5070065;28;20031;-74
2021/05/12 05:15:10;;;;;;;10.02;4.40;;;;;;;;;;5068227;28;20542;-73
2021/05/12 05:17:36;;;;;;;5.93;2.85;;;;;;;;;;5069846;28;20090;-73
2021/05/12 05:20:03;;;;;;;11.82;4.20;;;;;;;;;;5067132;28;20060;-73
2021/05/12 05:22:30;;;;;;;8.43;3.25;;;;;;;;;;5067321;28;20021;-73
2021/05/12 05:24:56;;;;;;;5.78;2.45;;;;;;;;;;5069138;28;20054;-74
2021/05/12 05:27:23;;;;;;;7.45;2.90;;;;;;;;;;5069025;28;20432;-74
2021/05/12 05:30:42;;;;;;;6.53;3.03;;;;;;;;;;5068809;28;20403;-74
2021/05/12 05:33:08;;;;;;;10.38;2.72;;;;;;;;;;5068277;28;20056;-75
2021/05/12 05:35:35;;;;;;;7.55;2.60;;;;;;;;;;5067690;28;20602;-73
2021/05/12 05:38:01;;;;;;;8.55;3.22;;;;;;;;;;5068003;28;20041;-74
2021/05/12 05:40:27;;;;;;;5.85;2.17;;;;;;;;;;5069793;28;20029;-75
2021/05/12 05:42:58;;;;;;;7.82;2.60;;;;;;;;;;5068763;28;20024;-74
2021/05/12 05:45:25;;;;;;;4.88;2.15;;;;;;;;;;5068995;28;20070;-75
2021/05/12 05:47:52;;;;;;;8.38;2.67;;;;;;;;;;5067733;28;20522;-74
2021/05/12 05:52:39;;;;;;;5.80;1.98;;;;;;;;;;5070021;28;20953;-73
2021/05/12 05:55:05;;;;;;;4.68;2.05;;;;;;;;;;5068619;28;20025;-73
2021/05/12 05:57:31;;;;;;;4.07;1.58;;;;;;;;;;5069562;28;20549;-74
2021/05/12 05:59:58;;;;;;;4.65;1.65;;;;;;;;;;5069373;28;20021;-73
2021/05/12 06:02:25;;;;;;;3.15;1.67;;;;;;;;;;5068371;28;20082;-74
2021/05/12 06:04:51;;;;;;;3.40;1.15;;;;;;;;;;5069505;28;20056;-71
2021/05/12 06:07:18;;;;;;;3.28;1.60;;;;;;;;;;5069582;28;20021;-72
2021/05/12 06:09:44;;;;;;;2.95;1.50;;;;;;;;;;5069282;28;20033;-71
2021/05/12 06:12:10;;;;;;;5.57;2.00;;;;;;;;;;5068634;28;20111;-72
2021/05/12 06:14:36;;;;;;;3.55;1.83;;;;;;;;;;5081186;28;20548;-79
2021/05/12 06:17:03;;;;;;;5.38;1.63;;;;;;;;;;5083724;28;20032;-80
2021/05/12 06:21:39;;;;;;;4.32;1.58;;;;;;;;;;5114023;27;20385;-77
2021/05/12 06:27:10;;;;;;;4.30;2.05;;;;;;;;;;5071936;28;20721;-83
2021/05/12 06:29:38;;;;;;;4.50;1.92;;;;;;;;;;5082888;28;20033;-82
2021/05/12 06:32:04;;;;;;;4.63;2.08;;;;;;;;;;5070614;28;20055;-82
2021/05/12 06:36:23;;;;;;;2.70;1.38;;;;;;;;;;5108078;27;20953;-82
2021/05/12 06:38:49;;;;;;;3.42;1.60;;;;;;;;;;5114982;28;20024;-82
2021/05/12 06:43:23;;;;;;;6.13;2.95;;;;;;;;;;5112320;27;20445;-79
2021/05/12 06:46:32;;;;;;;4.45;1.50;;;;;;;;;;5111225;27;20385;-79
2021/05/12 06:48:58;;;;;;;4.43;1.42;;;;;;;;;;5109419;28;20480;-77
2021/05/12 06:52:35;;;;;;;4.90;2.25;;;;;;;;;;5106404;27;20466;-81
2021/05/12 06:55:56;;;;;;;2.92;1.48;;;;;;;;;;5063578;28;20395;-83
2021/05/12 06:58:22;;;;;;;6.85;1.38;;;;;;;;;;5065481;28;20829;-82
2021/05/12 07:00:51;;;;;;;2.83;1.48;;;;;;;;;;5064200;28;20606;-76
2021/05/12 07:03:17;;;;;;;4.28;1.48;;;;;;;;;;5068795;28;20056;-79
2021/05/12 07:05:44;;;;;;;5.57;2.28;;;;;;;;;;5066346;28;20021;-75
2021/05/12 07:08:25;;;;;;;3.30;1.48;;;;;;;;;;5107745;27;20595;-74
2021/05/12 07:10:51;;;;;;;3.33;1.63;;;;;;;;;;5107145;28;20491;-72
2021/05/12 07:13:18;;;;;;;9.30;1.80;;;;;;;;;;5108934;28;20027;-70
2021/05/12 07:15:45;;;;;;;4.75;2.25;;;;;;;;;;5108965;28;20027;-72
2021/05/12 07:18:11;;;;;;;4.80;1.60;;;;;;;;;;5109485;28;20016;-73
2021/05/12 07:22:38;;;;;;;9.45;1.40;;;;;;;;;;5083963;28;20440;-72
2021/05/12 07:25:05;;;;;;;2.33;1.10;;;;;;;;;;5067406;28;20029;-73
2021/05/12 07:31:28;;;;;;;2.80;1.15;;;;;;;;;;5161485;27;20323;-69
2021/05/12 07:33:54;;;;;;;7.43;2.03;;;;;;;;;;5150168;27;20063;-68
2021/05/12 07:36:21;;;;;;;4.45;1.50;;;;;;;;;;5144457;27;20015;-68
2021/05/12 07:38:47;;;;;;;3.60;1.83;;;;;;;;;;5148395;27;20061;-69
2021/05/12 07:41:14;;;;;;;3.40;1.60;;;;;;;;;;5114091;27;20035;-68
2021/05/12 07:43:40;;;;;;;5.03;1.65;;;;;;;;;;5144920;27;20033;-67
2021/05/12 07:46:06;;;;;;;5.63;1.80;;;;;;;;;;5149933;27;20053;-67
2021/05/12 07:48:33;;;;;;;4.22;1.73;;;;;;;;;;5149675;27;20435;-68
2021/05/12 07:50:59;;;;;;;3.70;1.60;;;;;;;;;;5130935;27;20027;-68
2021/05/12 07:53:25;;;;;;;3.75;1.35;;;;;;;;;;5131027;27;20374;-68
2021/05/12 07:55:52;;;;;;;4.85;1.70;;;;;;;;;;5149683;27;20530;-69
2021/05/12 07:58:18;;;;;;;8.30;3.25;;;;;;;;;;5148844;27;20031;-69
2021/05/12 08:00:45;;;;;;;6.85;3.13;;;;;;;;;;5149402;27;20475;-70
2021/05/12 08:03:12;;;;;;;7.75;1.92;;;;;;;;;;5129352;27;20028;-72
2021/05/12 08:05:38;;;;;;;5.00;2.85;;;;;;;;;;5150147;27;20102;-70
2021/05/12 08:08:04;;;;;;;6.75;2.63;;;;;;;;;;5131807;27;20015;-68
2021/05/12 08:10:31;;;;;;;5.20;1.58;;;;;;;;;;5147111;27;20070;-69
2021/05/12 08:12:57;;;;;;;4.63;1.55;;;;;;;;;;5149535;27;20022;-70
2021/05/12 08:18:44;;;;;;;5.15;1.98;;;;;;;;;;5068361;28;20989;-68
2021/05/12 08:21:10;;;;;;;3.17;1.42;;;;;;;;;;5050198;28;20037;-68
2021/05/12 08:23:37;;;;;;;3.00;1.45;;;;;;;;;;5047123;28;20052;-68
2021/05/12 08:26:04;;;;;;;3.80;1.45;;;;;;;;;;5048465;28;20091;-69
2021/05/12 08:28:30;;;;;;;7.20;2.22;;;;;;;;;;5064270;28;20039;-69
2021/05/12 08:30:57;;;;;;;3.17;1.50;;;;;;;;;;5048244;28;20029;-69
2021/05/12 08:33:24;;;;;;;3.47;2.00;;;;;;;;;;5066340;28;20047;-68
2021/05/12 08:35:50;;;;;;;3.05;1.40;;;;;;;;;;5066736;28;20032;-67
2021/05/12 08:38:17;;;;;;;3.50;1.67;;;;;;;;;;5067588;28;20060;-69
2021/05/12 08:40:44;;;;;;;3.25;1.17;;;;;;;;;;5066213;28;20470;-68
2021/05/12 08:43:13;;;;;;;6.43;1.85;;;;;;;;;;5063485;28;20039;-68
2021/05/12 08:45:40;;;;;;;5.20;1.58;;;;;;;;;;5044027;28;20428;-67
2021/05/12 08:48:11;;;;;;;2.88;1.45;;;;;;;;;;5048109;28;20060;-73
2021/05/12 08:50:38;;;;;;;3.13;1.38;;;;;;;;;;5068871;28;20017;-72
2021/05/12 08:53:05;;;;;;;2.72;1.48;;;;;;;;;;5068407;28;20029;-74
2021/05/12 08:55:32;;;;;;;4.53;1.70;;;;;;;;;;5068249;28;20029;-73
2021/05/12 08:59:55;;;;;;;4.75;1.65;;;;;;;;;;5151697;27;20322;-73
2021/05/12 09:02:21;;;;;;;3.65;1.45;;;;;;;;;;5130017;28;20059;-73
2021/05/12 09:04:48;;;;;;;5.57;1.75;;;;;;;;;;5127255;27;20018;-73
2021/05/12 09:07:15;;;;;;;2.22;1.33;;;;;;;;;;5150610;27;20097;-72
2021/05/12 09:09:41;;;;;;;3.50;1.67;;;;;;;;;;5145296;27;20058;-72
2021/05/12 09:12:12;;;;;;;5.85;1.75;;;;;;;;;;5146528;27;20096;-72
2021/05/12 09:14:40;;;;;;;4.55;1.70;;;;;;;;;;5150910;27;20023;-73
2021/05/12 09:17:06;;;;;;;4.32;1.98;;;;;;;;;;5134143;27;20015;-72
2021/05/12 09:19:32;;;;;;;2.30;1.35;;;;;;;;;;5122392;27;20073;-71
2021/05/12 09:22:03;;;;;;;5.55;1.92;;;;;;;;;;5127005;27;20026;-74
2021/05/12 09:26:32;;;;;;;5.95;1.75;;;;;;;;;;5105244;27;20442;-76
2021/05/12 09:28:58;;;;;;;3.38;1.40;;;;;;;;;;5105087;28;20035;-77
2021/05/12 09:31:35;;;;;;;3.17;1.42;;;;;;;;;;5108607;28;20100;-78
2021/05/12 09:34:02;;;;;;;4.20;1.80;;;;;;;;;;5109518;28;20089;-75
2021/05/12 09:36:29;;;;;;;8.30;2.30;;;;;;;;;;5109636;28;20016;-75
2021/05/12 09:39:15;;;;;;;4.22;1.33;;;;;;;;;;5028473;28;20390;-76
2021/05/12 09:43:07;;;;;;;2.38;1.33;;;;;;;;;;5109670;27;20422;-73
2021/05/12 09:45:38;;;;;;;4.07;1.70;;;;;;;;;;5110096;28;20032;-76
2021/05/12 09:48:04;;;;;;;10.68;1.98;;;;;;;;;;5108378;28;20432;-73
2021/05/12 09:50:33;;;;;;;2.60;1.20;;;;;;;;;;5104462;28;20038;-76
2021/05/12 09:53:00;;;;;;;6.55;1.42;;;;;;;;;;5103049;28;20030;-81
2021/05/12 09:55:53;;;;;;;3.05;1.30;;;;;;;;;;5108343;28;20031;-72
2021/05/12 09:58:22;;;;;;;3.63;1.40;;;;;;;;;;5102905;28;20035;-73
2021/05/12 10:00:49;;;;;;;3.67;1.02;;;;;;;;;;5109596;28;20036;-72
2021/05/12 10:03:16;;;;;;;2.72;1.00;;;;;;;;;;5109197;28;20858;-72
2021/05/12 10:05:49;;;;;;;2.88;1.15;;;;;;;;;;5107629;28;20020;-72
2021/05/12 10:08:26;;;;;;;3.28;1.10;;;;;;;;;;5109521;28;20051;-74
2021/05/12 10:10:56;;;;;;;2.33;1.10;;;;;;;;;;5105485;28;20016;-70
2021/05/12 10:13:22;;;;;;;2.85;1.13;;;;;;;;;;5100258;28;20361;-72
2021/05/12 10:15:48;;;;;;;1.80;0.95;;;;;;;;;;5102984;28;20024;-74
2021/05/12 10:18:15;;;;;;;2.80;1.08;;;;;;;;;;5106244;28;20024;-76
2021/05/12 10:20:41;;;;;;;5.30;1.08;;;;;;;;;;5104542;28;20099;-82
2021/05/12 10:23:08;;;;;;;2.55;1.40;;;;;;;;;;5105509;28;20024;-75
2021/05/12 10:25:36;;;;;;;3.25;1.08;;;;;;;;;;5102790;28;20024;-75
2021/05/12 10:28:03;;;;;;;1.50;0.93;;;;;;;;;;5108581;28;20034;-85
2021/05/12 10:30:29;;;;;;;5.13;1.17;;;;;;;;;;5106395;28;20767;-79
2021/05/12 10:32:59;;;;;;;3.42;1.08;;;;;;;;;;5107604;28;20056;-77
2021/05/12 10:35:33;;;;;;;0.90;0.80;;;;;;;;;;5108008;28;20048;-76
2021/05/12 10:37:59;;;;;;;8.27;1.48;;;;;;;;;;5106127;28;20028;-76
2021/05/12 10:40:33;;;;;;;3.10;1.10;;;;;;;;;;5107391;28;20153;-78
2021/05/12 10:43:10;;;;;;;1.70;1.20;;;;;;;;;;5108553;28;20123;-74
2021/05/12 10:48:31;;;;;;;3.40;1.15;;;;;;;;;;5107718;28;20036;-71
2021/05/12 10:50:57;;;;;;;3.13;1.20;;;;;;;;;;5108635;28;20030;-71
2021/05/12 10:53:25;;;;;;;2.90;0.95;;;;;;;;;;5100761;28;20046;-72
2021/05/12 10:55:57;;;;;;;2.08;0.90;;;;;;;;;;5091901;28;20024;-70
2021/05/12 10:58:24;;;;;;;2.65;1.23;;;;;;;;;;5093991;28;20035;-70
2021/05/12 11:01:09;;;;;;;2.83;1.17;;;;;;;;;;5093466;28;20020;-72
2021/05/12 11:03:51;;;;;;;1.60;1.17;;;;;;;;;;5094919;28;20024;-72
2021/05/12 11:06:21;;;;;;;3.33;1.13;;;;;;;;;;5093200;28;20103;-72
2021/05/12 11:09:17;;;;;;;2.65;1.08;;;;;;;;;;5094852;28;20164;-70
2021/05/12 11:11:46;;;;;;;3.70;1.00;;;;;;;;;;5108565;28;20036;-70
2021/05/12 11:14:32;;;;;;;2.78;1.00;;;;;;;;;;5094446;28;20046;-71
2021/05/12 11:17:12;;;;;;;5.32;1.27;;;;;;;;;;5094705;28;20054;-70
2021/05/12 11:19:41;;;;;;;4.05;0.95;;;;;;;;;;5093343;28;20047;-70
2021/05/12 11:22:28;;;;;;;4.03;1.27;;;;;;;;;;5094372;28;20031;-70
2021/05/12 11:24:58;;;;;;;2.65;1.00;;;;;;;;;;5094848;28;20012;-71
2021/05/12 11:32:24;;;;;;;3.72;1.17;;;;;;;;;;5094765;28;20107;-72
2021/05/12 11:34:50;;;;;;;4.68;2.00;;;;;;;;;;5094158;28;20028;-71
2021/05/12 11:37:23;;;;;;;2.03;0.93;;;;;;;;;;5094637;28;20036;-70
2021/05/12 11:39:51;;;;;;;3.90;1.20;;;;;;;;;;5093174;28;20484;-71
2021/05/12 11:42:25;;;;;;;3.15;1.33;;;;;;;;;;5093621;28;20079;-70
2021/05/12 11:45:01;;;;;;;3.92;1.30;;;;;;;;;;5094478;28;20020;-71
2021/05/12 11:47:28;;;;;;;2.72;1.10;;;;;;;;;;5094470;28;20039;-71
2021/05/12 11:49:54;;;;;;;3.30;1.10;;;;;;;;;;5093850;28;20451;-71
2021/05/12 11:52:29;;;;;;;3.90;1.17;;;;;;;;;;5094539;28;20020;-71
2021/05/12 11:55:03;;;;;;;15.60;1.92;;;;;;;;;;5092819;28;20054;-71
2021/05/12 11:57:29;;;;;;;2.90;1.10;;;;;;;;;;5093856;28;20024;-71
2021/05/12 12:00:02;;;;;;;3.17;1.38;;;;;;;;;;5094076;28;20097;-71
2021/05/12 12:02:28;;;;;;;2.60;1.10;;;;;;;;;;5094293;28;20024;-71
2021/05/12 12:05:01;;;;;;;1.92;1.08;;;;;;;;;;5092978;28;20020;-71
2021/05/12 12:07:29;;;;;;;4.72;1.40;;;;;;;;;;5094113;28;20020;-71
2021/05/12 12:10:06;;;;;;;5.57;1.30;;;;;;;;;;5093586;28;20028;-71
2021/05/12 12:12:35;;;;;;;2.50;0.82;;;;;;;;;;5092837;28;20027;-70
2021/05/12 12:15:06;;;;;;;1.65;1.15;;;;;;;;;;5094176;28;20024;-71
2021/05/12 12:17:32;;;;;;;2.88;1.20;;;;;;;;;;5092082;28;20024;-71
2021/05/12 12:20:01;;;;;;;3.47;1.70;;;;;;;;;;5093698;28;20052;-72
2021/05/12 12:22:27;;;;;;;2.60;1.30;;;;;;;;;;5093713;28;20028;-71
2021/05/12 12:24:54;;;;;;;3.03;1.58;;;;;;;;;;5092034;28;20051;-71
2021/05/12 12:27:21;;;;;;;1.80;1.02;;;;;;;;;;5093544;28;20099;-71
2021/05/12 12:29:50;;;;;;;3.53;1.25;;;;;;;;;;5092204;28;20166;-70
2021/05/12 12:32:16;;;;;;;3.00;1.23;;;;;;;;;;5093167;28;20487;-70
2021/05/12 12:34:46;;;;;;;3.35;1.20;;;;;;;;;;5092217;28;20036;-71
2021/05/12 12:37:15;;;;;;;2.45;1.10;;;;;;;;;;5093477;28;20020;-70
2021/05/12 12:39:55;;;;;;;3.88;1.05;;;;;;;;;;5093000;28;20099;-71
2021/05/12 12:42:29;;;;;;;2.50;1.02;;;;;;;;;;5093021;28;20074;-71
2021/05/12 12:44:55;;;;;;;;;;;;;;;;;;5093189;28;20020;-70
2021/05/12 12:47:22;;;;;;;1.95;1.08;;;;;;;;;;5093398;28;20424;-70
2021/05/12 12:49:53;;;;;;;3.80;0.90;;;;;;;;;;5093279;28;20032;-71
2021/05/12 12:52:21;;;;;;;2.38;0.90;;;;;;;;;;5093108;28;20020;-72
2021/05/12 12:55:03;;;;;;;3.75;1.20;;;;;;;;;;5093211;28;20073;-72
2021/05/12 12:57:37;;;;;;;3.53;1.00;;;;;;;;;;5091911;28;20031;-72
2021/05/12 13:00:11;;;;;;;3.58;1.33;;;;;;;;;;5091342;28;20530;-72
2021/05/12 13:02:41;;;;;;;1.52;0.88;;;;;;;;;;5093043;28;20036;-71
2021/05/12 13:05:10;;;;;;;3.50;0.80;;;;;;;;;;5093086;28;20028;-71
2021/05/12 13:07:37;;;;;;;2.90;1.10;;;;;;;;;;5092687;28;20408;-72
2021/05/12 13:10:22;;;;;;;5.50;1.30;;;;;;;;;;5093040;28;20073;-71
2021/05/12 13:12:48;;;;;;;1.85;0.90;;;;;;;;;;5093037;28;20024;-71
2021/05/12 13:15:23;;;;;;;1.85;1.00;;;;;;;;;;5093029;28;20108;-72
2021/05/12 13:17:52;;;;;;;4.05;1.20;;;;;;;;;;5093115;28;20462;-72
2021/05/12 13:20:19;;;;;;;2.83;1.23;;;;;;;;;;5092441;28;20573;-70
2021/05/12 13:22:58;;;;;;;4.00;1.20;;;;;;;;;;5091433;28;20404;-70
2021/05/12 13:25:25;;;;;;;2.83;0.70;;;;;;;;;;5092851;28;20021;-70
2021/05/12 13:27:51;;;;;;;2.58;1.15;;;;;;;;;;5090994;28;20476;-71
2021/05/12 13:30:17;;;;;;;5.70;1.20;;;;;;;;;;5091525;28;20052;-71
2021/05/12 13:32:44;;;;;;;9.82;1.40;;;;;;;;;;5092990;28;20065;-71
2021/05/12 13:35:10;;;;;;;4.20;1.00;;;;;;;;;;5092262;28;20024;-72
2021/05/12 13:37:40;;;;;;;2.05;0.88;;;;;;;;;;5091414;28;20499;-71
2021/05/12 13:40:07;;;;;;;3.47;1.30;;;;;;;;;;5092690;28;20032;-70
2021/05/12 13:42:34;;;;;;;2.17;1.05;;;;;;;;;;5091814;28;20500;-72
2021/05/12 13:45:00;;;;;;;3.65;1.00;;;;;;;;;;5092608;28;20031;-71
2021/05/12 13:47:27;;;;;;;2.45;1.10;;;;;;;;;;5092541;28;20030;-71
2021/05/12 13:49:53;;;;;;;4.25;1.25;;;;;;;;;;5090941;28;20538;-71
2021/05/12 13:52:32;;;;;;;4.75;0.98;;;;;;;;;;5092767;28;20103;-71
2021/05/12 13:55:24;;;;;;;4.18;1.30;;;;;;;;;;5092410;28;20020;-71
2021/05/12 13:58:00;;;;;;;2.13;1.00;;;;;;;;;;5092011;28;20039;-72
2021/05/12 14:01:34;;;;;;;3.03;1.07;;;;;;;;;;5092488;28;20024;-71
2021/05/12 14:03:28;;;;;;;3.78;1.40;;;;;;;;;;5091854;28;20044;-72
2021/05/12 14:05:55;;;;;;;3.03;1.05;;;;;;;;;;5092443;28;20062;-72
2021/05/12 14:08:21;;;;;;;3.22;0.90;;;;;;;;;;5092361;28;20016;-70
2021/05/12 14:10:48;;;;;;;3.85;1.23;;;;;;;;;;5092044;28;20032;-71
2021/05/12 14:13:18;;;;;;;4.97;1.15;;;;;;;;;;5091033;28;20047;-70
2021/05/12 14:18:11;;;;;;;2.70;1.30;;;;;;;;;;5091823;28;20070;-70
2021/05/12 14:20:37;;;;;;;3.83;1.40;;;;;;;;;;5092175;28;20024;-70
2021/05/12 14:23:04;;;;;;;2.83;1.25;;;;;;;;;;5092900;28;20101;-71
2021/05/12 14:25:30;;;;;;;2.17;1.17;;;;;;;;;;5090425;28;20020;-71
2021/05/12 14:27:59;;;;;;;4.50;1.63;;;;;;;;;;5091497;28;20075;-71
2021/05/12 14:30:40;;;;;;;5.22;1.80;;;;;;;;;;5095821;28;20109;-71
2021/05/12 14:33:06;;;;;;;5.55;1.38;;;;;;;;;;5096318;28;20016;-70
2021/05/12 14:35:33;;;;;;;3.35;1.40;;;;;;;;;;5095948;28;20024;-71
2021/05/12 14:37:59;;;;;;;3.72;1.27;;;;;;;;;;5095432;28;20024;-70
2021/05/12 14:40:27;;;;;;;4.45;1.60;;;;;;;;;;5095879;28;20055;-71
2021/05/12 14:42:54;;;;;;;3.45;1.70;;;;;;;;;;5095508;28;20431;-72
2021/05/12 14:45:20;;;;;;;3.70;1.50;;;;;;;;;;5095486;28;20108;-70
2021/05/12 14:47:48;;;;;;;7.22;1.55;;;;;;;;;;5095759;28;20024;-71
2021/05/12 14:50:16;;;;;;;2.88;1.30;;;;;;;;;;5095927;28;20025;-71
2021/05/12 14:52:54;;;;;;;6.90;1.98;;;;;;;;;;5095312;28;20414;-71
2021/05/12 14:58:19;;;;;;;3.70;1.52;;;;;;;;;;5095618;28;20133;-71
2021/05/12 15:03:35;;;;;;;4.10;1.52;;;;;;;;;;5095722;28;20097;-71
2021/05/12 15:06:20;;;;;;;5.88;1.98;;;;;;;;;;5094820;28;20081;-71
2021/05/12 15:08:48;;;;;;;7.57;2.10;;;;;;;;;;5095189;28;20012;-71
2021/05/12 15:11:14;;;;;;;7.22;1.52;;;;;;;;;;5095143;28;20013;-70
2021/05/12 15:13:41;;;;;;;4.13;1.50;;;;;;;;;;5094957;28;20051;-70
2021/05/12 15:16:07;;;;;;;3.92;1.35;;;;;;;;;;5093658;28;20031;-71
2021/05/12 15:18:33;;;;;;;4.95;1.48;;;;;;;;;;5095408;28;20020;-69
2021/05/12 15:21:00;;;;;;;4.03;1.40;;;;;;;;;;5094430;28;20016;-69
2021/05/12 15:23:26;;;;;;;3.42;1.45;;;;;;;;;;5094989;28;20098;-69
2021/05/12 15:25:52;;;;;;;3.10;1.40;;;;;;;;;;5094907;28;20092;-70
2021/05/12 15:28:18;;;;;;;6.88;1.75;;;;;;;;;;5094797;28;20024;-70
2021/05/12 15:30:44;;;;;;;2.38;1.38;;;;;;;;;;5093547;28;20437;-70
2021/05/12 15:33:11;;;;;;;3.80;1.67;;;;;;;;;;5093659;28;20492;-70
2021/05/12 15:35:37;;;;;;;5.32;1.83;;;;;;;;;;5092939;28;20031;-71
2021/05/12 15:38:03;;;;;;;5.90;1.83;;;;;;;;;;5094562;28;20532;-70
2021/05/12 15:40:29;;;;;;;4.15;1.70;;;;;;;;;;5094040;28;20073;-71
2021/05/12 15:42:59;;;;;;;4.45;1.50;;;;;;;;;;5092980;28;20126;-70
2021/05/12 15:45:26;;;;;;;4.57;1.50;;;;;;;;;;5094551;28;20024;-70
2021/05/12 15:47:52;;;;;;;4.35;1.40;;;;;;;;;;5094151;28;20104;-70
2021/05/12 15:50:19;;;;;;;6.32;1.38;;;;;;;;;;5092983;28;20102;-70
2021/05/12 15:52:45;;;;;;;3.72;1.55;;;;;;;;;;5094211;28;20031;-70
2021/05/12 15:55:11;;;;;;;6.13;1.77;;;;;;;;;;5094121;28;20103;-71
2021/05/12 15:57:52;;;;;;;3.10;1.50;;;;;;;;;;5130823;27;20116;-70
2021/05/12 16:00:18;;;;;;;3.35;1.50;;;;;;;;;;5110368;28;20028;-70
2021/05/12 16:02:44;;;;;;;3.05;1.30;;;;;;;;;;5108561;28;20426;-69
2021/05/12 16:05:11;;;;;;;4.28;1.58;;;;;;;;;;5110242;28;20390;-70
2021/05/12 16:07:38;;;;;;;6.28;2.65;;;;;;;;;;5110177;28;20023;-70
2021/05/12 16:10:07;;;;;;;5.00;2.13;;;;;;;;;;5108510;28;20015;-70
2021/05/12 16:12:33;;;;;;;8.48;3.22;;;;;;;;;;5110006;28;20024;-70
2021/05/12 16:15:01;;;;;;;5.43;3.00;;;;;;;;;;5110256;28;20020;-70
2021/05/12 16:17:42;;;;;;;6.50;3.38;;;;;;;;;;5109646;27;20385;-69
2021/05/12 16:20:08;;;;;;;5.82;2.53;;;;;;;;;;5110246;28;20034;-71